Time,TemperatureF,DewpointF,PressureIn,WindDirection,WindDirectionDegrees,WindSpeedMPH,WindSpeedGustMPH,Humidity,HourlyPrecipIn,Conditions,Clouds,dailyrainin,SoftwareType,DateUTC
2013-03-13 00:07:00,34.7,21.0,30.41,SW,233,4.0,10.0,58,0.00,,,0.00,weatherlink.com 1.10,2013-03-13 06:07:00,
2013-03-13 00:22:00,34.6,21.0,30.41,ENE,62,2.0,9.0,57,0.00,,,0.00,weatherlink.com 1.10,2013-03-13 06:22:00,
2013-03-13 00:37:00,32.9,21.0,30.41,WSW,244,2.0,6.0,62,0.00,,,0.00,weatherlink.com 1.10,2013-03-13 06:37:00,
2013-03-13 00:52:00,33.4,21.0,30.41,WSW,239,4.0,10.0,61,0.00,,,0.00,weatherlink.com 1.10,2013-03-13 06:52:00,
2013-03-13 01:07:00,33.2,21.0,30.41,SW,235,4.0,5.0,61,0.00,,,0.00,weatherlink.com 1.10,2013-03-13 07:07:00,
2013-03-13 01:22:00,32.4,21.0,30.42,NE,47,0.0,5.0,63,0.00,,,0.00,weatherlink.com 1.10,2013-03-13 07:22:00,
2013-03-13 01:37:00,31.5,21.0,30.43,SW,222,0.0,5.0,65,0.00,,,0.00,weatherlink.com 1.10,2013-03-13 07:37:00,
2013-03-13 01:52:00,31.8,21.0,30.43,West,263,4.0,4.0,65,0.00,,,0.00,weatherlink.com 1.10,2013-03-13 07:52:00,
2013-03-13 02:22:00,30.3,21.0,30.44,SW,235,4.0,6.0,69,0.00,,,0.00,weatherlink.com 1.10,2013-03-13 08:22:00,
2013-03-13 02:37:00,31.5,21.0,30.45,SW,226,4.0,5.0,65,0.00,,,0.00,weatherlink.com 1.10,2013-03-13 08:37:00,
2013-03-13 02:52:00,31.6,21.0,30.45,SW,231,4.0,7.0,65,0.00,,,0.00,weatherlink.com 1.10,2013-03-13 08:52:00,
2013-03-13 03:07:00,31.5,21.0,30.44,SW,228,2.0,5.0,66,0.00,,,0.00,weatherlink.com 1.10,2013-03-13 09:07:00,
2013-03-13 03:22:00,31.0,21.0,30.44,SW,220,3.0,4.0,67,0.00,,,0.00,weatherlink.com 1.10,2013-03-13 09:22:00,
2013-03-13 03:37:00,33.8,21.0,30.43,WSW,258,5.0,10.0,61,0.00,,,0.00,weatherlink.com 1.10,2013-03-13 09:37:00,
2013-03-13 03:52:00,33.2,21.0,30.43,West,267,0.0,7.0,62,0.00,,,0.00,weatherlink.com 1.10,2013-03-13 09:52:00,
2013-03-13 04:07:00,33.2,21.0,30.43,West,275,5.0,6.0,62,0.00,,,0.00,weatherlink.com 1.10,2013-03-13 10:07:00,
2013-03-13 04:22:00,32.5,22.0,30.42,SW,235,2.0,6.0,66,0.00,,,0.00,weatherlink.com 1.10,2013-03-13 10:22:00,
2013-03-13 04:37:00,33.4,22.0,30.42,WSW,247,2.0,7.0,62,0.00,,,0.00,weatherlink.com 1.10,2013-03-13 10:37:00,
2013-03-13 04:52:00,32.7,22.0,30.43,WSW,247,3.0,5.0,65,0.00,,,0.00,weatherlink.com 1.10,2013-03-13 10:52:00,
2013-03-13 05:07:00,33.4,22.0,30.43,SW,228,5.0,6.0,63,0.00,,,0.00,weatherlink.com 1.10,2013-03-13 11:07:00,
2013-03-13 05:22:00,33.8,22.0,30.42,West,269,4.0,5.0,62,0.00,,,0.00,weatherlink.com 1.10,2013-03-13 11:22:00,
2013-03-13 05:37:00,33.7,22.0,30.43,West,259,4.0,5.0,62,0.00,,,0.00,weatherlink.com 1.10,2013-03-13 11:37:00,
2013-03-13 05:52:00,33.2,22.0,30.43,WSW,249,4.0,4.0,64,0.00,,,0.00,weatherlink.com 1.10,2013-03-13 11:52:00,
2013-03-13 06:07:00,34.3,22.0,30.44,SSW,206,5.0,7.0,62,0.00,,,0.00,weatherlink.com 1.10,2013-03-13 12:07:00,
2013-03-13 06:22:00,34.1,22.0,30.44,SW,235,2.0,8.0,62,0.00,,,0.00,weatherlink.com 1.10,2013-03-13 12:22:00,
2013-03-13 06:39:00,36.6,22.0,30.44,SW,220,3.0,10.0,55,0.00,,,0.00,weatherlink.com 1.10,2013-03-13 12:39:00,
2013-03-13 06:53:00,36.3,23.0,30.44,SW,233,7.0,14.0,58,0.00,,,0.00,weatherlink.com 1.10,2013-03-13 12:53:00,
2013-03-13 07:08:00,37.2,21.0,30.44,West,263,5.0,7.0,53,0.00,,,0.00,weatherlink.com 1.10,2013-03-13 13:08:00,
2013-03-13 07:23:00,36.5,22.0,30.44,SW,220,3.0,7.0,56,0.00,,,0.00,weatherlink.com 1.10,2013-03-13 13:23:00,
2013-03-13 07:38:00,36.8,22.0,30.43,SW,225,1.0,8.0,56,0.00,,,0.00,weatherlink.com 1.10,2013-03-13 13:38:00,
2013-03-13 07:53:00,36.3,22.0,30.43,West,277,0.0,3.0,56,0.00,,,0.00,weatherlink.com 1.10,2013-03-13 13:53:00,
2013-03-13 08:08:00,37.2,23.0,30.44,NNW,332,2.0,5.0,56,0.00,,,0.00,weatherlink.com 1.10,2013-03-13 14:08:00,
2013-03-13 08:23:00,37.5,22.0,30.44,NNW,332,0.0,3.0,54,0.00,,,0.00,weatherlink.com 1.10,2013-03-13 14:23:00,
2013-03-13 08:38:00,37.5,24.0,30.45,WSW,253,0.0,5.0,59,0.00,,,0.00,weatherlink.com 1.10,2013-03-13 14:38:00,
2013-03-13 08:53:00,37.9,22.0,30.45,WSW,253,0.0,2.0,54,0.00,,,0.00,weatherlink.com 1.10,2013-03-13 14:53:00,
2013-03-13 09:08:00,38.5,24.0,30.46,WSW,253,0.0,5.0,57,0.00,,,0.00,weatherlink.com 1.10,2013-03-13 15:08:00,
2013-03-13 09:38:00,41.1,24.0,30.46,WSW,253,0.0,2.0,51,0.00,,,0.00,weatherlink.com 1.10,2013-03-13 15:38:00,
2013-03-13 09:53:00,43.6,24.0,30.46,WSW,253,0.0,1.0,47,0.00,,,0.00,weatherlink.com 1.10,2013-03-13 15:53:00,
2013-03-13 10:08:00,45.1,24.0,30.46,West,268,0.0,1.0,43,0.00,,,0.00,weatherlink.com 1.10,2013-03-13 16:08:00,
2013-03-13 10:23:00,45.5,23.0,30.45,West,268,0.0,2.0,42,0.00,,,0.00,weatherlink.com 1.10,2013-03-13 16:23:00,
2013-03-13 10:38:00,45.8,23.0,30.46,WNW,282,3.0,3.0,40,0.00,,,0.00,weatherlink.com 1.10,2013-03-13 16:38:00,
2013-03-13 10:53:00,46.4,21.0,30.46,NE,43,0.0,2.0,37,0.00,,,0.00,weatherlink.com 1.10,2013-03-13 16:53:00,
2013-03-13 11:08:00,47.6,22.0,30.46,NE,43,0.0,0.0,36,0.00,,,0.00,weatherlink.com 1.10,2013-03-13 17:08:00,
2013-03-13 11:23:00,47.4,21.0,30.46,NE,43,1.0,4.0,35,0.00,,,0.00,weatherlink.com 1.10,2013-03-13 17:23:00,
2013-03-13 11:38:00,47.3,22.0,30.46,SSW,208,4.0,5.0,37,0.00,,,0.00,weatherlink.com 1.10,2013-03-13 17:38:00,
2013-03-13 11:53:00,47.7,22.0,30.46,South,180,0.0,5.0,37,0.00,,,0.00,weatherlink.com 1.10,2013-03-13 17:53:00,
2013-03-13 12:08:00,48.3,22.0,30.45,SW,214,4.0,6.0,35,0.00,,,0.00,weatherlink.com 1.10,2013-03-13 18:08:00,
2013-03-13 12:23:00,48.6,22.0,30.45,South,180,3.0,4.0,35,0.00,,,0.00,weatherlink.com 1.10,2013-03-13 18:23:00,
2013-03-13 12:38:00,49.1,22.0,30.45,ESE,114,2.0,6.0,34,0.00,,,0.00,weatherlink.com 1.10,2013-03-13 18:38:00,
2013-03-13 12:53:00,48.8,21.0,30.44,SW,216,2.0,4.0,33,0.00,,,0.00,weatherlink.com 1.10,2013-03-13 18:53:00,
2013-03-13 13:08:00,49.1,22.0,30.44,SE,127,5.0,5.0,34,0.00,,,0.00,weatherlink.com 1.10,2013-03-13 19:08:00,
2013-03-13 13:23:00,49.4,22.0,30.43,SE,127,5.0,7.0,34,0.00,,,0.00,weatherlink.com 1.10,2013-03-13 19:23:00,
2013-03-13 13:38:00,50.7,24.0,30.42,East,90,2.0,7.0,35,0.00,,,0.00,weatherlink.com 1.10,2013-03-13 19:38:00,
2013-03-13 13:53:00,55.1,21.0,30.41,SSE,154,5.0,8.0,27,0.00,,,0.00,weatherlink.com 1.10,2013-03-13 19:53:00,
2013-03-13 14:08:00,55.7,22.0,30.40,ESE,102,7.0,10.0,27,0.00,,,0.00,weatherlink.com 1.10,2013-03-13 20:08:00,
2013-03-13 14:23:00,56.5,20.0,30.40,ESE,106,3.0,6.0,24,0.00,,,0.00,weatherlink.com 1.10,2013-03-13 20:23:00,
2013-03-13 14:38:00,58.4,21.0,30.39,SSE,158,2.0,6.0,23,0.00,,,0.00,weatherlink.com 1.10,2013-03-13 20:38:00,
2013-03-13 14:53:00,58.3,19.0,30.38,SSE,162,2.0,12.0,22,0.00,,,0.00,weatherlink.com 1.10,2013-03-13 20:53:00,
2013-03-13 15:09:00,59.3,20.0,30.37,SSW,211,5.0,10.0,22,0.00,,,0.00,weatherlink.com 1.10,2013-03-13 21:09:00,
2013-03-13 15:23:00,59.5,21.0,30.37,SW,224,5.0,8.0,23,0.00,,,0.00,weatherlink.com 1.10,2013-03-13 21:23:00,
2013-03-13 15:39:00,60.7,21.0,30.36,SSE,156,4.0,9.0,22,0.00,,,0.00,weatherlink.com 1.10,2013-03-13 21:39:00,
2013-03-13 15:54:00,60.5,20.0,30.36,NW,304,6.0,16.0,21,0.00,,,0.00,weatherlink.com 1.10,2013-03-13 21:54:00,
2013-03-13 16:09:00,60.7,22.0,30.35,West,280,8.0,21.0,23,0.00,,,0.00,weatherlink.com 1.10,2013-03-13 22:09:00,
2013-03-13 16:24:00,59.9,21.0,30.35,WNW,294,7.0,14.0,22,0.00,,,0.00,weatherlink.com 1.10,2013-03-13 22:24:00,
2013-03-13 16:39:00,59.2,21.0,30.35,WNW,290,3.0,11.0,23,0.00,,,0.00,weatherlink.com 1.10,2013-03-13 22:39:00,
2013-03-13 16:54:00,59.3,21.0,30.36,West,280,5.0,11.0,23,0.00,,,0.00,weatherlink.com 1.10,2013-03-13 22:54:00,
2013-03-13 17:09:00,59.0,23.0,30.35,West,260,5.0,10.0,25,0.00,,,0.00,weatherlink.com 1.10,2013-03-13 23:09:00,
2013-03-13 17:24:00,58.6,21.0,30.35,WNW,287,7.0,14.0,23,0.00,,,0.00,weatherlink.com 1.10,2013-03-13 23:24:00,
2013-03-13 17:39:00,58.1,21.0,30.35,West,281,7.0,10.0,24,0.00,,,0.00,weatherlink.com 1.10,2013-03-13 23:39:00,
2013-03-13 17:54:00,58.3,21.0,30.34,West,268,7.0,9.0,24,0.00,,,0.00,weatherlink.com 1.10,2013-03-13 23:54:00,
2013-03-13 18:09:00,58.3,23.0,30.35,NNW,333,0.0,7.0,26,0.00,,,0.00,weatherlink.com 1.10,2013-03-14 00:09:00,
2013-03-13 18:24:00,57.0,24.0,30.35,West,278,4.0,7.0,28,0.00,,,0.00,weatherlink.com 1.10,2013-03-14 00:24:00,
2013-03-13 18:39:00,55.7,22.0,30.35,WNW,295,8.0,16.0,27,0.00,,,0.00,weatherlink.com 1.10,2013-03-14 00:39:00,
2013-03-13 18:54:00,55.0,22.0,30.35,WSW,245,8.0,17.0,28,0.00,,,0.00,weatherlink.com 1.10,2013-03-14 00:54:00,
2013-03-13 19:09:00,54.5,22.0,30.36,NW,312,12.0,22.0,28,0.00,,,0.00,weatherlink.com 1.10,2013-03-14 01:09:00,
2013-03-13 19:24:00,53.9,21.0,30.36,West,274,7.0,17.0,28,0.00,,,0.00,weatherlink.com 1.10,2013-03-14 01:24:00,
2013-03-13 19:39:00,53.6,20.0,30.36,West,266,9.0,12.0,27,0.00,,,0.00,weatherlink.com 1.10,2013-03-14 01:39:00,
2013-03-13 19:54:00,54.1,20.0,30.36,West,278,10.0,16.0,26,0.00,,,0.00,weatherlink.com 1.10,2013-03-14 01:54:00,
2013-03-13 20:09:00,53.6,21.0,30.37,West,272,4.0,12.0,28,0.00,,,0.00,weatherlink.com 1.10,2013-03-14 02:09:00,
2013-03-13 20:39:00,53.8,17.0,30.37,NW,311,4.0,10.0,23,0.00,,,0.00,weatherlink.com 1.10,2013-03-14 02:39:00,
2013-03-13 20:54:00,54.1,18.0,30.37,WNW,302,3.0,6.0,24,0.00,,,0.00,weatherlink.com 1.10,2013-03-14 02:54:00,
2013-03-13 21:09:00,52.5,18.0,30.38,NW,314,2.0,2.0,26,0.00,,,0.00,weatherlink.com 1.10,2013-03-14 03:09:00,
2013-03-13 21:39:00,48.2,22.0,30.39,SSW,204,4.0,8.0,36,0.00,,,0.00,weatherlink.com 1.10,2013-03-14 03:39:00,
2013-03-13 21:54:00,49.8,21.0,30.39,ESE,106,9.0,9.0,32,0.00,,,0.00,weatherlink.com 1.10,2013-03-14 03:54:00,
2013-03-13 22:09:00,48.3,22.0,30.39,ESE,112,0.0,3.0,36,0.00,,,0.00,weatherlink.com 1.10,2013-03-14 04:09:00,
2013-03-13 22:24:00,46.7,24.0,30.40,South,178,2.0,3.0,41,0.00,,,0.00,weatherlink.com 1.10,2013-03-14 04:24:00,
2013-03-13 22:39:00,44.9,22.0,30.40,WSW,247,0.0,3.0,41,0.00,,,0.00,weatherlink.com 1.10,2013-03-14 04:39:00,
2013-03-13 22:54:00,43.8,24.0,30.39,WSW,247,0.0,4.0,45,0.00,,,0.00,weatherlink.com 1.10,2013-03-14 04:54:00,
2013-03-13 23:09:00,43.1,24.0,30.40,WSW,247,2.0,3.0,47,0.00,,,0.00,weatherlink.com 1.10,2013-03-14 05:09:00,
2013-03-13 23:24:00,41.9,25.0,30.40,SSW,193,1.0,3.0,52,0.00,,,0.00,weatherlink.com 1.10,2013-03-14 05:24:00,
2013-03-13 23:39:00,42.6,24.0,30.39,WSW,255,5.0,7.0,48,0.00,,,0.00,weatherlink.com 1.10,2013-03-14 05:39:00,
2013-03-13 23:54:00,43.3,24.0,30.39,WNW,288,3.0,5.0,47,0.00,,,0.00,weatherlink.com 1.10,2013-03-14 05:54:00,